createdAt,value
2022-09-16T00:00:22.545Z,101126.88
2022-09-16T00:05:25.839Z,101116.53
2022-09-16T00:10:28.819Z,101111.41
2022-09-16T00:15:33.181Z,101107.97
2022-09-16T00:20:36.133Z,101105.94
2022-09-16T00:25:39.410Z,101103.09
2022-09-16T00:30:43.736Z,101101.25
2022-09-16T00:35:46.731Z,101100.06
2022-09-16T00:40:51.389Z,101110.69
2022-09-16T00:46:01.180Z,101122.22
2022-09-16T00:51:12.681Z,101122.34
2022-09-16T00:56:17.922Z,101111.84
2022-09-16T01:01:22.602Z,101112.03
2022-09-16T01:06:27.809Z,101113.03
2022-09-16T01:11:30.670Z,101112.16
2022-09-16T01:16:41.493Z,101123.44
2022-09-16T01:21:50.031Z,101116.31
2022-09-16T01:27:14.825Z,101116.22
2022-09-16T01:32:28.782Z,101112.47
2022-09-16T01:37:44.430Z,101114.94
2022-09-16T01:42:57.611Z,101120.09
2022-09-16T01:48:12.105Z,101120.03
2022-09-16T01:53:20.413Z,101132.28
2022-09-16T01:58:27.329Z,101134.59
2022-09-16T02:03:36.056Z,101139.28
2022-09-16T02:08:46.134Z,101129.94
2022-09-16T02:13:53.533Z,101118.91
2022-09-16T02:19:02.287Z,101135.47
2022-09-16T02:24:11.295Z,101132.13
2022-09-16T02:29:18.741Z,101120.72
2022-09-16T02:34:26.931Z,101112.81
2022-09-16T02:39:33.563Z,101112.88
2022-09-16T02:44:36.670Z,101107.34
2022-09-16T02:49:46.870Z,101123.16
2022-09-16T02:54:56.406Z,101126.59
2022-09-16T02:59:59.663Z,101131.88
2022-09-16T03:05:04.565Z,101119.66
2022-09-16T03:10:10.154Z,101124.91
2022-09-16T03:15:27.187Z,101123.25
2022-09-16T03:20:41.544Z,101123.34
2022-09-16T03:25:53.270Z,101124.59
2022-09-16T03:31:05.691Z,101122.53
2022-09-16T03:36:15.313Z,101126.31
2022-09-16T03:41:18.786Z,101155.38
2022-09-16T03:46:21.930Z,101153.66
2022-09-16T03:51:27.585Z,101132.00
2022-09-16T03:56:30.911Z,101118.47
2022-09-16T04:01:33.897Z,101097.69
2022-09-16T04:06:39.882Z,101100.16
2022-09-16T04:11:42.789Z,101108.72
2022-09-16T04:16:45.683Z,101102.56
2022-09-16T04:21:50.073Z,101111.59
2022-09-16T04:26:53.537Z,101110.91
2022-09-16T04:31:56.971Z,101143.84
2022-09-16T04:37:01.810Z,101138.09
2022-09-16T04:42:06.277Z,101127.50
2022-09-16T04:47:10.577Z,101118.09
2022-09-16T04:52:14.945Z,101121.97
2022-09-16T04:57:17.890Z,101127.03
2022-09-16T05:02:20.800Z,101109.66
2022-09-16T05:07:29.074Z,101102.50
2022-09-16T05:12:32.004Z,101114.81
2022-09-16T05:17:50.521Z,101110.34
2022-09-16T05:22:55.689Z,101115.84
2022-09-16T05:27:58.920Z,101118.59
2022-09-16T05:33:03.369Z,101112.41
2022-09-16T05:38:07.849Z,101123.97
2022-09-16T05:43:10.978Z,101140.13
2022-09-16T05:48:14.008Z,101148.84
2022-09-16T05:53:18.855Z,101146.09
2022-09-16T05:58:21.760Z,101140.72
2022-09-16T06:03:24.724Z,101145.00
2022-09-16T06:08:29.923Z,101134.50
2022-09-16T06:13:32.954Z,101136.41
2022-09-16T06:18:36.671Z,101148.06
2022-09-16T06:23:41.550Z,101133.47
2022-09-16T06:28:44.856Z,101139.19
2022-09-16T06:33:47.877Z,101141.34
2022-09-16T06:38:52.323Z,101136.22
2022-09-16T06:43:55.352Z,101150.47
2022-09-16T06:49:04.547Z,101154.09
2022-09-16T06:54:12.064Z,101174.88
2022-09-16T06:59:15.413Z,101184.28
2022-09-16T07:04:18.374Z,101158.94
2022-09-16T07:09:22.979Z,101126.06
2022-09-16T07:14:26.458Z,101139.59
2022-09-16T07:19:29.950Z,101146.06
2022-09-16T07:24:34.297Z,101147.34
2022-09-16T07:29:41.525Z,101136.81
2022-09-16T07:34:44.436Z,101148.31
2022-09-16T07:39:48.889Z,101160.63
2022-09-16T07:44:51.830Z,101161.44
2022-09-16T07:49:56.169Z,101169.53
2022-09-16T07:55:00.478Z,101164.84
2022-09-16T08:00:07.858Z,101181.19
2022-09-16T08:05:15.744Z,101179.66
2022-09-16T08:10:21.927Z,101186.25
2022-09-16T08:15:24.943Z,101187.91
2022-09-16T08:20:28.416Z,101189.78
2022-09-16T08:25:36.330Z,101184.78
2022-09-16T08:30:39.375Z,101174.91
2022-09-16T08:35:42.307Z,101184.75
2022-09-16T08:40:47.233Z,101188.94
2022-09-16T08:45:56.502Z,101206.47
2022-09-16T08:51:02.324Z,101217.56
2022-09-16T08:56:11.714Z,101231.78
2022-09-16T09:01:20.366Z,101227.28
2022-09-16T09:06:58.639Z,101217.28
2022-09-16T09:12:10.176Z,101229.88
2022-09-16T09:17:24.521Z,101222.00
2022-09-16T09:22:46.254Z,101228.94
2022-09-16T09:28:01.182Z,101223.31
2022-09-16T09:33:44.222Z,101236.25
2022-09-16T09:39:01.450Z,101234.44
2022-09-16T09:44:27.442Z,101232.94
2022-09-16T09:49:36.734Z,101233.00
2022-09-16T09:54:41.482Z,101223.25
2022-09-16T09:59:51.256Z,101222.66
2022-09-16T10:04:54.617Z,101221.53
2022-09-16T10:10:02.001Z,101214.47
2022-09-16T10:15:07.757Z,101209.84
2022-09-16T10:20:35.003Z,101210.28
2022-09-16T10:25:41.076Z,101205.94
2022-09-16T10:30:49.735Z,101205.63
2022-09-16T10:35:58.391Z,101206.59
2022-09-16T10:41:09.541Z,101210.03
2022-09-16T10:46:16.935Z,101216.34
2022-09-16T10:51:25.395Z,101221.06
2022-09-16T10:56:30.178Z,101220.47
2022-09-16T11:01:45.705Z,101222.25
2022-09-16T11:07:03.622Z,101210.28
2022-09-16T11:12:31.883Z,101213.38
2022-09-16T11:17:48.541Z,101227.16
2022-09-16T11:23:01.426Z,101227.88
2022-09-16T11:28:35.191Z,101238.72
2022-09-16T11:33:46.375Z,101228.50
2022-09-16T11:39:01.889Z,101233.03
2022-09-16T11:44:20.545Z,101261.03
2022-09-16T11:49:42.870Z,101263.47
2022-09-16T11:55:01.713Z,101264.22
2022-09-16T12:00:12.346Z,101241.91
2022-09-16T12:05:21.054Z,101244.81
2022-09-16T12:10:26.829Z,101254.94
2022-09-16T12:20:48.017Z,101253.47
2022-09-16T12:26:01.096Z,101247.59
2022-09-16T12:31:13.769Z,101250.31
2022-09-16T12:36:24.325Z,101244.13
2022-09-16T12:41:51.565Z,101256.06
2022-09-16T12:47:11.110Z,101253.44
2022-09-16T12:52:26.681Z,101267.25
2022-09-16T12:57:43.009Z,101267.53
2022-09-16T13:02:49.979Z,101264.22
2022-09-16T13:07:57.077Z,101253.88
2022-09-16T13:13:04.626Z,101240.00
2022-09-16T13:18:22.172Z,101229.78
2022-09-16T13:23:32.720Z,101234.28
2022-09-16T13:28:40.863Z,101225.00
2022-09-16T13:33:45.541Z,101221.06
2022-09-16T13:38:51.953Z,101226.38
2022-09-16T13:43:55.023Z,101205.25
2022-09-16T13:49:06.655Z,101207.41
2022-09-16T13:54:23.566Z,101216.53
2022-09-16T13:59:42.062Z,101215.56
2022-09-16T14:05:06.489Z,101235.09
2022-09-16T14:10:19.311Z,101225.97
2022-09-16T14:15:23.620Z,101223.84
2022-09-16T14:20:28.884Z,101216.81
2022-09-16T14:25:35.671Z,101216.75
2022-09-16T14:30:41.520Z,101217.03
2022-09-16T14:35:47.150Z,101210.41
2022-09-16T14:40:52.672Z,101213.94
2022-09-16T14:51:17.002Z,101203.69
2022-09-16T14:56:21.404Z,101200.16
2022-09-16T15:01:28.292Z,101194.13
2022-09-16T15:06:35.286Z,101206.91
2022-09-16T15:11:57.330Z,101218.09
2022-09-16T15:17:04.066Z,101253.28
2022-09-16T15:22:11.159Z,101236.25
2022-09-16T15:27:24.225Z,101236.66
2022-09-16T15:32:31.831Z,101223.63
2022-09-16T15:37:35.936Z,101218.84
2022-09-16T15:42:40.317Z,101219.53
2022-09-16T15:47:54.316Z,101219.22
2022-09-16T15:53:02.688Z,101217.94
2022-09-16T15:58:18.687Z,101220.63
2022-09-16T16:03:22.336Z,101220.00
2022-09-16T16:08:46.225Z,101222.97
2022-09-16T16:13:51.291Z,101227.72
2022-09-16T16:18:54.796Z,101220.16
2022-09-16T16:23:58.281Z,101242.06
2022-09-16T16:29:02.908Z,101245.00
2022-09-16T16:34:05.880Z,101243.50
2022-09-16T16:39:08.855Z,101241.81
2022-09-16T16:44:13.248Z,101245.94
2022-09-16T16:49:16.304Z,101250.31
2022-09-16T16:54:20.035Z,101247.16
2022-09-16T16:59:24.470Z,101246.66
2022-09-16T17:04:27.977Z,101248.06
2022-09-16T17:09:30.933Z,101240.50
2022-09-16T17:14:35.280Z,101247.91
2022-09-16T17:19:38.391Z,101241.47
2022-09-16T17:24:41.308Z,101246.31
2022-09-16T17:29:45.868Z,101257.28
2022-09-16T17:34:48.906Z,101261.53
2022-09-16T17:39:52.029Z,101280.66
2022-09-16T17:44:56.633Z,101265.34
2022-09-16T17:50:03.477Z,101265.34
2022-09-16T17:55:06.852Z,101274.38
2022-09-16T18:00:15.813Z,101280.00
2022-09-16T18:05:18.914Z,101294.13
2022-09-16T18:10:24.921Z,101269.69
2022-09-16T18:15:29.354Z,101270.34
2022-09-16T18:20:32.925Z,101267.03
2022-09-16T18:25:40.837Z,101282.34
2022-09-16T18:30:45.650Z,101283.81
2022-09-16T18:35:48.640Z,101292.47
2022-09-16T18:40:52.000Z,101294.78
2022-09-16T18:45:56.385Z,101298.94
2022-09-16T18:50:59.441Z,101298.09
2022-09-16T18:56:02.644Z,101300.75
2022-09-16T19:01:14.396Z,101302.47
2022-09-16T19:06:17.603Z,101322.88
2022-09-16T19:11:20.643Z,101328.38
2022-09-16T19:16:25.109Z,101305.63
2022-09-16T19:21:28.139Z,101312.00
2022-09-16T19:26:34.555Z,101331.19
2022-09-16T19:31:43.850Z,101321.31
2022-09-16T19:36:47.029Z,101318.63
2022-09-16T19:41:52.422Z,101313.34
2022-09-16T19:46:56.795Z,101303.47
2022-09-16T19:51:59.722Z,101320.88
2022-09-16T19:57:02.772Z,101323.81
2022-09-16T20:02:07.743Z,101351.91
2022-09-16T20:07:16.847Z,101356.75
2022-09-16T20:12:19.774Z,101345.50
2022-09-16T20:17:24.051Z,101359.97
2022-09-16T20:22:27.073Z,101348.25
2022-09-16T20:27:29.971Z,101348.34
2022-09-16T20:32:34.453Z,101343.84
2022-09-16T20:37:39.652Z,101353.41
2022-09-16T20:42:42.687Z,101356.09
2022-09-16T20:47:52.043Z,101359.03
2022-09-16T20:52:55.024Z,101361.91
2022-09-16T20:57:57.977Z,101364.78
2022-09-16T21:03:02.282Z,101368.72
2022-09-16T21:08:06.311Z,101371.13
2022-09-16T21:13:27.923Z,101357.72
2022-09-16T21:18:41.686Z,101359.75
2022-09-16T21:23:47.123Z,101370.22
2022-09-16T21:28:54.312Z,101388.06
2022-09-16T21:33:59.330Z,101380.34
2022-09-16T21:39:17.970Z,101387.59
2022-09-16T21:44:21.623Z,101377.38
2022-09-16T21:49:26.099Z,101391.72
2022-09-16T21:54:30.603Z,101413.03
2022-09-16T21:59:33.493Z,101402.97
2022-09-16T22:04:37.827Z,101395.00
2022-09-16T22:09:40.713Z,101413.63
2022-09-16T22:14:43.639Z,101413.09
2022-09-16T22:19:48.709Z,101406.63
2022-09-16T22:24:51.626Z,101407.28
2022-09-16T22:29:54.934Z,101395.47
2022-09-16T22:34:59.465Z,101397.97
2022-09-16T22:40:02.891Z,101411.13
2022-09-16T22:45:10.707Z,101396.72
2022-09-16T22:50:15.241Z,101400.31
2022-09-16T22:55:18.267Z,101397.47
2022-09-16T23:00:21.174Z,101401.19
2022-09-16T23:05:25.531Z,101393.63
2022-09-16T23:10:28.557Z,101392.53
2022-09-16T23:15:31.574Z,101397.63
2022-09-16T23:20:35.998Z,101403.00
2022-09-16T23:25:40.059Z,101417.44
2022-09-16T23:30:43.001Z,101432.97
2022-09-16T23:35:51.732Z,101442.22
2022-09-16T23:40:55.013Z,101436.75
2022-09-16T23:45:57.977Z,101416.28
2022-09-16T23:51:03.463Z,101415.31
2022-09-16T23:56:07.154Z,101426.94
